createdAt,value
2022-09-06T00:00:18.491Z,7.30
2022-09-06T00:02:46.062Z,8.30
2022-09-06T00:05:15.965Z,7.28
2022-09-06T00:07:43.000Z,6.72
2022-09-06T00:10:10.929Z,7.40
2022-09-06T00:12:38.728Z,7.10
2022-09-06T00:15:06.627Z,7.10
2022-09-06T00:17:34.527Z,7.07
2022-09-06T00:20:02.082Z,6.78
2022-09-06T00:22:29.212Z,6.60
2022-09-06T00:24:56.256Z,6.90
2022-09-06T00:27:23.341Z,6.97
2022-09-06T00:29:50.497Z,6.53
2022-09-06T00:32:17.758Z,6.32
2022-09-06T00:34:44.815Z,6.75
2022-09-06T00:37:11.887Z,6.70
2022-09-06T00:39:38.892Z,6.05
2022-09-06T00:42:13.062Z,7.00
2022-09-06T00:44:40.551Z,6.40
2022-09-06T00:47:08.692Z,6.70
2022-09-06T00:49:44.355Z,7.15
2022-09-06T00:52:14.947Z,8.10
2022-09-06T00:54:43.001Z,7.10
2022-09-06T00:57:13.872Z,8.13
2022-09-06T00:59:42.403Z,7.45
2022-09-06T01:02:09.990Z,7.20
2022-09-06T01:04:41.476Z,6.80
2022-09-06T01:07:14.371Z,7.75
2022-09-06T01:10:06.190Z,6.75
2022-09-06T01:13:04.301Z,7.32
2022-09-06T01:16:09.272Z,6.50
2022-09-06T01:18:36.389Z,7.22
2022-09-06T01:21:14.622Z,6.82
2022-09-06T01:23:55.073Z,6.90
2022-09-06T01:26:56.462Z,7.95
2022-09-06T01:29:37.360Z,6.35
2022-09-06T01:32:17.041Z,7.47
2022-09-06T01:34:50.963Z,7.57
2022-09-06T01:37:20.345Z,7.35
2022-09-06T01:39:47.712Z,6.75
2022-09-06T01:42:19.818Z,7.22
2022-09-06T01:45:09.302Z,7.07
2022-09-06T01:47:57.208Z,6.38
2022-09-06T01:50:58.542Z,7.15
2022-09-06T01:53:55.477Z,7.03
2022-09-06T01:56:53.696Z,6.97
2022-09-06T01:59:38.467Z,6.78
2022-09-06T02:02:11.366Z,6.67
2022-09-06T02:05:04.979Z,6.38
2022-09-06T02:07:34.764Z,6.78
2022-09-06T02:10:07.925Z,6.95
2022-09-06T02:12:39.295Z,6.93
2022-09-06T02:15:15.903Z,7.88
2022-09-06T02:18:16.752Z,6.32
2022-09-06T02:20:50.656Z,7.32
2022-09-06T02:23:18.984Z,7.10
2022-09-06T02:25:52.868Z,7.45
2022-09-06T02:28:20.724Z,7.07
2022-09-06T02:30:57.970Z,7.75
2022-09-06T02:33:28.514Z,8.30
2022-09-06T02:35:55.989Z,7.65
2022-09-06T02:38:25.025Z,7.18
2022-09-06T02:40:53.805Z,7.15
2022-09-06T02:43:21.731Z,7.63
2022-09-06T02:45:48.946Z,7.80
2022-09-06T02:48:15.999Z,7.32
2022-09-06T02:50:43.019Z,7.53
2022-09-06T02:53:12.756Z,6.72
2022-09-06T02:55:40.631Z,6.90
2022-09-06T02:58:10.523Z,7.07
2022-09-06T03:00:39.571Z,6.72
2022-09-06T03:03:06.716Z,6.43
2022-09-06T03:05:34.013Z,6.80
2022-09-06T03:08:01.057Z,6.78
2022-09-06T03:10:28.163Z,7.13
2022-09-06T03:12:57.536Z,7.05
2022-09-06T03:15:24.669Z,7.28
2022-09-06T03:17:51.718Z,7.15
2022-09-06T03:20:18.917Z,7.43
2022-09-06T03:22:46.026Z,6.65
2022-09-06T03:25:13.028Z,7.25
2022-09-06T03:27:40.004Z,7.07
2022-09-06T03:30:07.803Z,6.22
2022-09-06T03:32:34.930Z,6.18
2022-09-06T03:35:02.349Z,6.75
2022-09-06T03:37:29.332Z,6.70
2022-09-06T03:39:56.437Z,7.20
2022-09-06T03:42:26.072Z,6.97
2022-09-06T03:44:53.719Z,6.95
2022-09-06T03:47:21.013Z,7.68
2022-09-06T03:49:48.117Z,7.05
2022-09-06T03:52:15.323Z,7.20
2022-09-06T03:54:42.319Z,6.47
2022-09-06T03:57:09.661Z,7.25
2022-09-06T03:59:36.800Z,7.43
2022-09-06T04:02:04.287Z,7.40
2022-09-06T04:04:31.395Z,7.68
2022-09-06T04:06:58.395Z,7.13
2022-09-06T04:09:28.116Z,7.18
2022-09-06T04:11:55.847Z,6.75
2022-09-06T04:14:22.928Z,7.50
2022-09-06T04:16:50.460Z,6.78
2022-09-06T04:19:17.602Z,6.53
2022-09-06T04:21:44.576Z,7.10
2022-09-06T04:24:11.621Z,6.85
2022-09-06T04:26:38.878Z,7.00
2022-09-06T04:29:05.976Z,6.85
2022-09-06T04:31:33.021Z,6.32
2022-09-06T04:34:00.058Z,6.90
2022-09-06T04:36:27.112Z,6.72
2022-09-06T04:38:54.789Z,7.00
2022-09-06T04:41:21.835Z,6.85
2022-09-06T04:43:49.441Z,6.97
2022-09-06T04:46:26.891Z,6.63
2022-09-06T04:48:55.285Z,7.25
2022-09-06T04:51:23.459Z,6.82
2022-09-06T04:53:51.337Z,7.07
2022-09-06T04:56:23.726Z,7.28
2022-09-06T04:58:52.062Z,6.50
2022-09-06T05:01:20.421Z,7.45
2022-09-06T05:03:47.722Z,6.97
2022-09-06T05:06:21.401Z,7.07
2022-09-06T05:08:49.135Z,6.28
2022-09-06T05:11:19.863Z,7.28
2022-09-06T05:13:47.784Z,7.10
2022-09-06T05:16:14.939Z,8.50
2022-09-06T05:18:42.130Z,7.22
2022-09-06T05:21:09.386Z,6.63
2022-09-06T05:23:36.760Z,6.93
2022-09-06T05:26:04.048Z,7.35
2022-09-06T05:28:31.152Z,7.03
2022-09-06T05:31:12.851Z,6.82
2022-09-06T05:33:39.989Z,7.47
2022-09-06T05:36:07.590Z,6.68
2022-09-06T05:38:34.685Z,6.30
2022-09-06T05:41:01.789Z,6.57
2022-09-06T05:43:28.969Z,7.00
2022-09-06T05:45:56.120Z,6.97
2022-09-06T05:48:23.271Z,7.50
2022-09-06T05:51:01.043Z,7.43
2022-09-06T05:53:33.311Z,7.38
2022-09-06T05:56:00.276Z,6.47
2022-09-06T05:58:27.314Z,7.43
2022-09-06T06:01:08.745Z,6.68
2022-09-06T06:03:35.783Z,6.03
2022-09-06T06:06:02.791Z,7.32
2022-09-06T06:08:29.858Z,7.82
2022-09-06T06:11:00.435Z,6.95
2022-09-06T06:13:29.871Z,7.55
2022-09-06T06:15:56.964Z,7.57
2022-09-06T06:18:23.980Z,6.95
2022-09-06T06:20:51.771Z,7.50
2022-09-06T06:23:18.888Z,7.45
2022-09-06T06:25:45.879Z,7.05
2022-09-06T06:28:12.886Z,7.28
2022-09-06T06:30:39.852Z,6.97
2022-09-06T06:33:06.876Z,8.00
2022-09-06T06:35:38.241Z,7.72
2022-09-06T06:38:07.030Z,10.43
2022-09-06T06:40:34.280Z,9.15
2022-09-06T06:43:01.553Z,7.45
2022-09-06T06:45:28.726Z,6.50
2022-09-06T06:47:55.724Z,6.72
2022-09-06T06:50:22.685Z,7.22
2022-09-06T06:52:49.675Z,7.20
2022-09-06T06:55:16.761Z,7.60
2022-09-06T06:57:43.813Z,7.60
2022-09-06T07:00:11.467Z,7.22
2022-09-06T07:02:38.549Z,6.80
2022-09-06T07:07:53.138Z,7.65
2022-09-06T07:10:35.616Z,7.88
2022-09-06T07:13:05.419Z,7.60
2022-09-06T07:15:32.581Z,7.63
2022-09-06T07:18:00.820Z,7.20
2022-09-06T07:20:28.006Z,7.40
2022-09-06T07:25:53.151Z,8.38
2022-09-06T07:28:20.238Z,8.38
2022-09-06T07:30:47.250Z,8.50
2022-09-06T07:33:14.319Z,7.45
2022-09-06T07:35:41.747Z,7.22
2022-09-06T07:38:09.024Z,8.07
2022-09-06T07:40:36.007Z,8.07
2022-09-06T07:43:03.019Z,8.82
2022-09-06T07:45:30.137Z,7.28
2022-09-06T07:48:00.937Z,7.97
2022-09-06T07:53:23.054Z,9.95
2022-09-06T07:55:56.191Z,7.60
2022-09-06T07:58:23.220Z,7.90
2022-09-06T08:00:50.294Z,7.00
2022-09-06T08:03:17.887Z,7.70
2022-09-06T08:11:25.265Z,7.78
2022-09-06T08:13:54.829Z,6.93
2022-09-06T08:16:24.798Z,7.53
2022-09-06T08:18:54.183Z,7.70
2022-09-06T08:21:25.686Z,7.53
2022-09-06T08:24:00.751Z,7.80
2022-09-06T08:26:29.857Z,7.47
2022-09-06T08:29:01.961Z,7.72
2022-09-06T08:31:31.465Z,7.75
2022-09-06T08:33:59.950Z,7.10
2022-09-06T08:36:29.738Z,7.00
2022-09-06T08:39:00.728Z,10.50
2022-09-06T08:41:37.667Z,8.80
2022-09-06T08:47:16.708Z,8.80
2022-09-06T08:49:46.250Z,9.25
2022-09-06T08:52:36.022Z,9.50
2022-09-06T08:55:24.766Z,10.93
2022-09-06T08:58:14.526Z,9.88
2022-09-06T09:00:48.319Z,16.75
2022-09-06T09:03:21.333Z,9.95
2022-09-06T09:05:52.861Z,9.95
2022-09-06T09:08:34.812Z,9.00
2022-09-06T09:11:07.538Z,9.70
2022-09-06T09:13:51.623Z,9.60
2022-09-06T09:16:19.721Z,12.90
2022-09-06T09:18:52.665Z,10.63
2022-09-06T09:21:29.570Z,9.13
2022-09-06T09:24:01.930Z,9.85
2022-09-06T09:26:36.769Z,10.90
2022-09-06T09:29:04.868Z,11.32
2022-09-06T09:31:51.334Z,11.55
2022-09-06T09:34:35.478Z,10.80
2022-09-06T09:40:01.433Z,13.10
2022-09-06T09:42:35.652Z,11.77
2022-09-06T09:45:08.778Z,12.05
2022-09-06T09:47:35.829Z,13.18
2022-09-06T09:50:32.660Z,13.35
2022-09-06T09:53:14.408Z,10.77
2022-09-06T09:55:42.711Z,13.70
2022-09-06T09:58:24.955Z,12.05
2022-09-06T10:01:15.000Z,11.63
2022-09-06T10:09:29.725Z,11.40
2022-09-06T10:12:00.015Z,10.77
2022-09-06T10:14:28.593Z,12.77
2022-09-06T10:16:56.779Z,12.23
2022-09-06T10:19:44.217Z,13.48
2022-09-06T10:22:39.069Z,13.27
2022-09-06T10:25:14.879Z,10.55
2022-09-06T10:28:10.545Z,12.20
2022-09-06T10:31:20.108Z,9.45
2022-09-06T10:34:20.250Z,9.80
2022-09-06T10:37:19.359Z,10.38
2022-09-06T10:40:11.064Z,10.25
2022-09-06T10:42:53.887Z,8.55
2022-09-06T10:45:42.558Z,10.23
2022-09-06T10:48:28.220Z,10.50
2022-09-06T10:51:21.993Z,8.75
2022-09-06T10:53:54.661Z,10.15
2022-09-06T10:56:21.619Z,11.02
2022-09-06T11:02:00.490Z,7.75
2022-09-06T11:07:36.307Z,9.75
2022-09-06T11:10:20.131Z,7.95
2022-09-06T11:13:04.062Z,8.30
2022-09-06T11:15:43.795Z,8.18
2022-09-06T11:18:22.962Z,8.05
2022-09-06T11:21:35.475Z,8.02
2022-09-06T11:24:29.174Z,7.88
2022-09-06T11:27:04.584Z,24.60
2022-09-06T11:29:33.119Z,16.02
2022-09-06T11:32:24.605Z,9.48
2022-09-06T11:34:57.734Z,8.38
2022-09-06T11:37:32.806Z,7.57
2022-09-06T11:42:55.837Z,10.63
2022-09-06T11:45:41.678Z,9.77
2022-09-06T11:48:23.662Z,8.90
2022-09-06T11:50:53.928Z,8.85
2022-09-06T11:53:25.971Z,6.28
2022-09-06T11:56:02.175Z,6.82
2022-09-06T11:58:47.049Z,7.35
2022-09-06T12:01:13.963Z,7.53
2022-09-06T12:04:09.454Z,7.28
2022-09-06T12:09:38.411Z,6.72
2022-09-06T12:12:06.039Z,6.43
2022-09-06T12:14:46.537Z,6.57
2022-09-06T12:17:13.471Z,7.63
2022-09-06T12:19:53.838Z,6.90
2022-09-06T12:22:26.949Z,6.20
2022-09-06T12:24:59.734Z,7.07
2022-09-06T12:27:35.184Z,7.10
2022-09-06T12:30:06.084Z,7.82
2022-09-06T12:32:37.231Z,7.32
2022-09-06T12:38:06.508Z,7.55
2022-09-06T12:40:38.640Z,6.50
2022-09-06T12:43:05.854Z,7.05
2022-09-06T12:45:33.195Z,6.00
2022-09-06T12:48:25.160Z,6.88
2022-09-06T12:51:16.304Z,6.13
2022-09-06T12:53:51.605Z,6.47
2022-09-06T12:56:22.183Z,6.65
2022-09-06T12:58:49.282Z,6.20
2022-09-06T13:01:37.038Z,6.30
2022-09-06T13:04:09.717Z,6.07
2022-09-06T13:06:43.286Z,6.13
2022-09-06T13:09:16.655Z,5.50
2022-09-06T13:11:47.621Z,5.63
2022-09-06T13:14:19.543Z,6.40
2022-09-06T13:16:52.091Z,6.55
2022-09-06T13:19:33.808Z,6.32
2022-09-06T13:22:03.734Z,6.10
2022-09-06T13:24:36.807Z,5.85
2022-09-06T13:27:27.136Z,5.10
2022-09-06T13:30:07.056Z,5.47
2022-09-06T13:32:35.607Z,6.95
2022-09-06T13:35:04.434Z,6.50
2022-09-06T13:37:42.059Z,5.43
2022-09-06T13:41:16.110Z,5.95
2022-09-06T13:43:45.731Z,5.10
2022-09-06T13:46:13.060Z,4.70
2022-09-06T13:48:40.520Z,5.30
2022-09-06T13:51:09.653Z,5.22
2022-09-06T13:53:39.359Z,5.07
2022-09-06T13:56:11.149Z,5.80
2022-09-06T13:58:38.712Z,5.47
2022-09-06T14:01:08.719Z,5.45
2022-09-06T14:03:37.720Z,5.18
2022-09-06T14:09:06.488Z,4.53
2022-09-06T14:11:34.647Z,5.07
2022-09-06T14:14:01.679Z,5.20
2022-09-06T14:16:29.035Z,5.18
2022-09-06T14:18:56.406Z,5.53
2022-09-06T14:21:23.788Z,4.97
2022-09-06T14:23:54.032Z,5.13
2022-09-06T14:26:23.100Z,4.97
2022-09-06T14:28:50.479Z,4.80
2022-09-06T14:31:20.554Z,5.00
2022-09-06T14:33:48.693Z,4.75
2022-09-06T14:36:18.900Z,5.65
2022-09-06T14:38:46.960Z,5.78
2022-09-06T14:41:15.726Z,4.63
2022-09-06T14:43:44.399Z,5.38
2022-09-06T14:46:14.238Z,5.50
2022-09-06T14:48:42.721Z,4.65
2022-09-06T14:51:09.896Z,4.53
2022-09-06T14:53:41.341Z,4.40
2022-09-06T14:56:09.707Z,4.97
2022-09-06T14:58:38.319Z,4.32
2022-09-06T15:01:08.405Z,4.60
2022-09-06T15:03:36.279Z,4.25
2022-09-06T15:06:04.255Z,4.68
2022-09-06T15:08:31.551Z,3.80
2022-09-06T15:10:58.963Z,4.00
2022-09-06T15:13:26.952Z,4.20
2022-09-06T15:15:57.613Z,4.30
2022-09-06T15:18:24.924Z,4.03
2022-09-06T15:20:52.027Z,3.97
2022-09-06T15:23:25.120Z,4.20
2022-09-06T15:25:54.154Z,3.85
2022-09-06T15:28:21.515Z,3.08
2022-09-06T15:30:49.088Z,3.50
2022-09-06T15:33:16.243Z,3.35
2022-09-06T15:35:44.168Z,3.22
2022-09-06T15:38:12.395Z,3.08
2022-09-06T15:40:39.543Z,3.30
2022-09-06T15:43:06.659Z,3.83
2022-09-06T15:45:48.575Z,3.60
2022-09-06T15:48:17.422Z,4.22
2022-09-06T15:50:51.685Z,3.55
2022-09-06T15:53:19.719Z,3.47
2022-09-06T15:55:56.163Z,2.97
2022-09-06T15:58:25.212Z,3.22
2022-09-06T16:01:07.003Z,4.60
2022-09-06T16:04:03.554Z,8.68
2022-09-06T16:06:37.182Z,6.32
2022-09-06T16:09:09.800Z,5.82
2022-09-06T16:11:37.377Z,4.28
2022-09-06T16:14:08.379Z,4.05
2022-09-06T16:16:35.902Z,3.75
2022-09-06T16:19:04.292Z,3.85
2022-09-06T16:21:33.466Z,3.80
2022-09-06T16:24:02.898Z,3.30
2022-09-06T16:26:35.642Z,3.20
2022-09-06T16:29:04.415Z,3.60
2022-09-06T16:31:35.318Z,3.40
2022-09-06T16:34:06.487Z,3.67
2022-09-06T16:36:33.576Z,3.47
2022-09-06T16:39:00.624Z,3.45
2022-09-06T16:41:32.514Z,4.20
2022-09-06T16:43:59.731Z,3.53
2022-09-06T16:46:30.272Z,3.15
2022-09-06T16:49:03.120Z,4.10
2022-09-06T16:51:34.125Z,3.65
2022-09-06T16:54:01.660Z,3.58
2022-09-06T16:56:33.267Z,3.83
2022-09-06T16:59:03.264Z,3.35
2022-09-06T17:01:32.283Z,3.33
2022-09-06T17:04:02.317Z,3.95
2022-09-06T17:06:30.514Z,3.33
2022-09-06T17:08:58.892Z,3.70
2022-09-06T17:11:27.319Z,3.83
2022-09-06T17:13:55.275Z,4.72
2022-09-06T17:16:41.153Z,3.67
2022-09-06T17:19:09.027Z,3.97
2022-09-06T17:21:37.430Z,5.43
2022-09-06T17:24:05.241Z,3.53
2022-09-06T17:26:34.190Z,3.75
2022-09-06T17:29:01.754Z,3.80
2022-09-06T17:31:28.922Z,5.93
2022-09-06T17:33:56.161Z,4.10
2022-09-06T17:36:30.425Z,4.55
2022-09-06T17:39:23.811Z,5.65
2022-09-06T17:41:53.620Z,3.90
2022-09-06T17:44:24.579Z,4.75
2022-09-06T17:47:11.342Z,5.35
2022-09-06T17:49:39.314Z,6.50
2022-09-06T17:52:06.419Z,4.45
2022-09-06T17:54:33.650Z,4.35
2022-09-06T17:57:00.792Z,4.68
2022-09-06T17:59:31.569Z,7.10
2022-09-06T18:02:01.499Z,4.03
2022-09-06T18:04:28.756Z,4.10
2022-09-06T18:06:55.881Z,4.28
2022-09-06T18:09:22.952Z,4.22
2022-09-06T18:11:50.098Z,4.32
2022-09-06T18:14:20.782Z,3.50
2022-09-06T18:16:51.141Z,3.97
2022-09-06T18:19:19.017Z,4.90
2022-09-06T18:21:46.900Z,4.05
2022-09-06T18:24:14.523Z,4.25
2022-09-06T18:26:43.025Z,4.90
2022-09-06T18:29:14.848Z,4.20
2022-09-06T18:31:43.438Z,4.15
2022-09-06T18:34:10.913Z,3.70
2022-09-06T18:36:38.729Z,3.83
2022-09-06T18:39:06.485Z,4.43
2022-09-06T18:41:52.896Z,4.00
2022-09-06T18:44:20.476Z,4.72
2022-09-06T18:46:48.314Z,4.40
2022-09-06T18:49:17.473Z,4.20
2022-09-06T18:51:45.534Z,4.68
2022-09-06T18:54:13.609Z,4.13
2022-09-06T18:56:41.412Z,4.45
2022-09-06T18:59:10.517Z,5.53
2022-09-06T19:01:37.846Z,4.97
2022-09-06T19:04:06.270Z,5.10
2022-09-06T19:06:35.074Z,5.53
2022-09-06T19:09:10.786Z,5.15
2022-09-06T19:11:38.244Z,4.80
2022-09-06T19:14:05.919Z,4.90
2022-09-06T19:16:33.691Z,4.68
2022-09-06T19:19:15.662Z,5.53
2022-09-06T19:21:44.550Z,8.07
2022-09-06T19:24:12.452Z,6.25
2022-09-06T19:26:42.672Z,6.95
2022-09-06T19:29:17.405Z,5.95
2022-09-06T19:31:45.543Z,5.85
2022-09-06T19:34:15.343Z,6.00
2022-09-06T19:36:44.414Z,8.95
2022-09-06T19:39:15.719Z,6.25
2022-09-06T19:41:45.016Z,4.60
2022-09-06T19:44:13.017Z,5.35
2022-09-06T19:46:45.635Z,5.53
2022-09-06T19:49:15.298Z,5.90
2022-09-06T19:51:45.201Z,6.53
2022-09-06T19:54:12.946Z,6.00
2022-09-06T19:56:40.202Z,5.50
2022-09-06T19:59:09.040Z,5.70
2022-09-06T20:01:38.040Z,5.78
2022-09-06T20:04:08.082Z,5.30
2022-09-06T20:06:37.446Z,5.85
2022-09-06T20:09:07.060Z,5.32
2022-09-06T20:11:35.614Z,5.18
2022-09-06T20:14:02.919Z,5.22
2022-09-06T20:16:30.576Z,5.40
2022-09-06T20:19:01.919Z,5.70
2022-09-06T20:21:29.642Z,6.00
2022-09-06T20:23:59.312Z,6.03
2022-09-06T20:26:29.114Z,6.70
2022-09-06T20:29:00.751Z,8.68
2022-09-06T20:31:29.886Z,5.82
2022-09-06T20:33:59.798Z,4.15
2022-09-06T20:36:27.186Z,4.82
2022-09-06T20:38:54.358Z,5.18
2022-09-06T20:41:23.702Z,3.35
2022-09-06T20:43:56.341Z,3.70
2022-09-06T20:46:26.484Z,3.42
2022-09-06T20:48:57.119Z,3.47
2022-09-06T20:51:25.393Z,3.38
2022-09-06T20:53:55.084Z,3.70
2022-09-06T20:56:27.928Z,3.22
2022-09-06T20:58:57.411Z,2.80
2022-09-06T21:01:27.860Z,3.42
2022-09-06T21:03:57.144Z,2.90
2022-09-06T21:06:26.198Z,2.90
2022-09-06T21:08:53.957Z,2.60
2022-09-06T21:11:21.131Z,2.30
2022-09-06T21:13:51.172Z,2.67
2022-09-06T21:16:24.911Z,2.42
2022-09-06T21:19:05.477Z,2.72
2022-09-06T21:21:34.732Z,2.50
2022-09-06T21:24:03.966Z,2.67
2022-09-06T21:26:31.117Z,2.13
2022-09-06T21:28:58.772Z,2.22
2022-09-06T21:31:31.328Z,2.10
2022-09-06T21:34:01.655Z,2.22
2022-09-06T21:36:34.791Z,2.40
2022-09-06T21:39:10.254Z,2.13
2022-09-06T21:41:38.901Z,2.70
2022-09-06T21:44:07.234Z,2.22
2022-09-06T21:46:37.251Z,3.10
2022-09-06T21:49:10.210Z,2.45
2022-09-06T21:51:37.733Z,2.13
2022-09-06T21:54:06.012Z,3.08
2022-09-06T21:56:34.465Z,2.40
2022-09-06T21:59:02.382Z,2.53
2022-09-06T22:01:32.176Z,2.50
2022-09-06T22:04:00.172Z,2.50
2022-09-06T22:06:29.304Z,2.40
2022-09-06T22:08:58.102Z,2.47
2022-09-06T22:11:30.936Z,2.72
2022-09-06T22:14:00.168Z,2.20
2022-09-06T22:16:28.563Z,2.60
2022-09-06T22:18:56.231Z,2.28
2022-09-06T22:21:23.662Z,2.40
2022-09-06T22:24:02.477Z,2.85
2022-09-06T22:26:32.427Z,2.60
2022-09-06T22:29:01.887Z,2.65
2022-09-06T22:31:31.085Z,2.60
2022-09-06T22:33:59.084Z,2.67
2022-09-06T22:36:27.036Z,2.80
2022-09-06T22:38:57.466Z,2.90
2022-09-06T22:41:30.888Z,2.60
2022-09-06T22:44:00.429Z,2.55
2022-09-06T22:46:28.011Z,2.65
2022-09-06T22:48:55.513Z,2.75
2022-09-06T22:51:22.597Z,2.67
2022-09-06T22:53:49.739Z,2.40
2022-09-06T22:56:16.960Z,3.00
2022-09-06T22:58:44.044Z,2.80
2022-09-06T23:01:13.808Z,2.75
2022-09-06T23:03:42.260Z,3.10
2022-09-06T23:06:10.147Z,2.85
2022-09-06T23:08:38.843Z,2.30
2022-09-06T23:11:11.820Z,2.70
2022-09-06T23:13:43.405Z,2.78
2022-09-06T23:16:14.122Z,2.97
2022-09-06T23:18:41.682Z,3.53
2022-09-06T23:21:11.738Z,2.70
2022-09-06T23:23:39.594Z,2.72
2022-09-06T23:26:10.110Z,2.90
2022-09-06T23:28:38.253Z,2.80
2022-09-06T23:31:10.570Z,3.22
2022-09-06T23:33:38.405Z,3.08
2022-09-06T23:36:07.582Z,3.25
2022-09-06T23:38:36.610Z,2.67
2022-09-06T23:41:04.804Z,3.05
2022-09-06T23:43:32.324Z,2.92
2022-09-06T23:45:59.528Z,2.97
2022-09-06T23:48:26.848Z,3.50
2022-09-06T23:50:54.386Z,3.55
2022-09-06T23:53:21.689Z,3.60
2022-09-06T23:55:48.818Z,5.13
2022-09-06T23:58:15.917Z,5.05
